Time;durP1;ratioP1;P1;durP2;ratioP2;P2;SDS_P1;SDS_P2;PMS_P1;PMS_P2;Temp;Humidity;BMP_temperature;BMP_pressure;BME280_temperature;BME280_humidity;BME280_pressure;Samples;Min_cycle;Max_cycle;Signal;HPM_P1;HPM_P2
2021/08/30 00:00:07;;;;;;;0.20;0.20;;;;;;;13.58;72.20;97772.59;114506;1217;139196;-85
2021/08/30 00:02:33;;;;;;;0.20;0.20;;;;;;;13.59;72.22;97772.00;114455;1218;138788;-85
2021/08/30 00:04:59;;;;;;;0.10;0.10;;;;;;;13.60;72.42;97773.57;114539;1215;138062;-85
2021/08/30 00:07:25;;;;;;;0.10;0.10;;;;;;;13.60;72.30;97778.52;114579;1220;22291;-85
2021/08/30 00:10:11;;;;;;;0.20;0.20;;;;;;;13.60;72.43;97782.99;114455;1218;137551;-86
2021/08/30 00:12:40;;;;;;;0.10;0.10;;;;;;;13.58;72.48;97786.95;114511;1217;137249;-86
2021/08/30 00:15:26;;;;;;;0.10;0.10;;;;;;;13.56;72.47;97793.07;114475;1219;137814;-87
2021/08/30 00:17:52;;;;;;;0.10;0.10;;;;;;;13.54;72.51;97792.86;114551;1215;137567;-85
2021/08/30 00:20:21;;;;;;;0.10;0.10;;;;;;;13.51;72.59;97794.64;114482;1221;138112;-86
2021/08/30 00:22:47;;;;;;;0.20;0.20;;;;;;;13.50;72.60;97798.02;114565;1226;22394;-86
2021/08/30 00:25:20;;;;;;;0.20;0.20;;;;;;;13.51;72.67;97798.58;114471;1220;138119;-86
2021/08/30 00:27:46;;;;;;;0.10;0.10;;;;;;;13.53;72.89;97797.48;114369;1223;138655;-86
2021/08/30 00:30:19;;;;;;;0.10;0.10;;;;;;;13.54;72.86;97797.65;114533;1217;137523;-86
2021/08/30 00:32:45;;;;;;;0.10;0.10;;;;;;;13.55;72.81;97799.38;114479;1218;137979;-86
2021/08/30 00:35:12;;;;;;;0.20;0.20;;;;;;;13.55;72.79;97801.61;114570;1216;137498;-86
2021/08/30 00:37:47;;;;;;;0.10;0.10;;;;;;;13.54;72.76;97803.69;114591;1221;22169;-86
2021/08/30 00:40:16;;;;;;;0.10;0.10;;;;;;;13.53;72.76;97805.91;114530;1217;137009;-86
2021/08/30 00:42:43;;;;;;;0.00;0.00;;;;;;;13.52;72.68;97807.65;114468;1217;137960;-86
2021/08/30 00:45:41;;;;;;;0.10;0.10;;;;;;;13.48;72.84;97806.46;114761;1217;137312;-86
2021/08/30 00:48:39;;;;;;;0.10;0.10;;;;;;;13.46;72.94;97807.64;114582;1219;138081;-86
2021/08/30 00:51:04;;;;;;;0.20;0.20;;;;;;;13.46;72.88;97810.27;114526;1218;138716;-86
2021/08/30 00:53:30;;;;;;;0.20;0.20;;;;;;;13.48;73.09;97808.70;114514;1216;137842;-84
2021/08/30 00:55:56;;;;;;;0.20;0.20;;;;;;;13.48;73.16;97811.48;114538;1216;138008;-85
2021/08/30 00:58:22;;;;;;;0.10;0.10;;;;;;;13.49;73.24;97809.05;114623;1226;22348;-85
2021/08/30 01:00:48;;;;;;;0.20;0.20;;;;;;;13.50;73.13;97803.81;114545;1217;137639;-85
2021/08/30 01:04:15;;;;;;;0.10;0.10;;;;;;;13.50;73.13;97802.73;114610;1216;136348;-81
2021/08/30 01:07:44;;;;;;;0.10;0.10;;;;;;;13.49;73.18;97799.70;114712;1216;137865;-80
2021/08/30 01:11:14;;;;;;;0.10;0.10;;;;;;;13.45;73.40;97804.66;114562;1221;137428;-79
2021/08/30 01:14:41;;;;;;;0.10;0.10;;;;;;;13.41;73.45;97805.17;114590;1220;137409;-80
2021/08/30 01:18:15;;;;;;;0.10;0.10;;;;;;;13.42;73.53;97804.66;114658;1217;139063;-79
2021/08/30 01:21:58;;;;;;;0.10;0.10;;;;;;;13.45;73.55;97806.13;114570;1216;138609;-80
2021/08/30 01:25:25;;;;;;;0.10;0.10;;;;;;;13.48;73.77;97803.92;114657;1217;138261;-79
2021/08/30 01:28:51;;;;;;;0.10;0.10;;;;;;;13.49;73.58;97800.00;114623;1216;137333;-80
2021/08/30 01:32:21;;;;;;;0.10;0.10;;;;;;;13.47;73.63;97806.67;114581;1221;138274;-80
2021/08/30 01:35:56;;;;;;;;;;;;;;;;;;;;;
2021/08/30 01:42:38;;;;;;;0.10;0.10;;;;;;;13.34;73.69;97803.34;114508;1217;137893;-79
2021/08/30 01:46:04;;;;;;;0.10;0.10;;;;;;;13.34;73.69;97806.27;114589;1216;138048;-80
2021/08/30 01:49:31;;;;;;;0.10;0.10;;;;;;;13.34;73.75;97807.19;114532;1227;138029;-80
2021/08/30 01:52:57;;;;;;;0.10;0.10;;;;;;;13.36;73.76;97806.42;114637;1216;137695;-80
2021/08/30 01:56:25;;;;;;;0.10;0.10;;;;;;;13.37;73.93;97805.36;114593;1219;137140;-79
2021/08/30 02:03:16;;;;;;;0.00;0.00;;;;;;;13.36;73.95;97801.70;114647;1216;137531;-79
2021/08/30 02:06:53;;;;;;;;;;;;;;;;;;;;;
2021/08/30 02:10:19;;;;;;;;;;;;;;;;;;;;;
2021/08/30 02:13:36;;;;;;;0.10;0.10;;;;;;;13.34;74.11;97796.31;114588;1217;138096;-80
2021/08/30 02:24:09;;;;;;;;;;;;;;;;;;;;;
2021/08/30 02:27:40;;;;;;;0.10;0.10;;;;;;;13.44;74.12;97789.05;114619;1217;137579;-79
2021/08/30 02:31:17;;;;;;;0.10;0.10;;;;;;;13.42;74.05;97791.12;114597;1217;137778;-80
2021/08/30 02:34:44;;;;;;;0.10;0.10;;;;;;;13.34;74.09;97788.66;114610;1217;137410;-80
2021/08/30 02:52:05;;;;;;;0.10;0.10;;;;;;;13.32;74.59;97792.28;114660;1218;137689;-80
2021/08/30 02:55:33;;;;;;;0.10;0.10;;;;;;;13.32;74.51;97790.81;114726;1221;136240;-80
2021/08/30 03:02:31;;;;;;;0.10;0.10;;;;;;;13.25;74.58;97782.38;114442;1220;136911;-80
2021/08/30 03:05:57;;;;;;;0.10;0.10;;;;;;;13.19;74.37;97783.48;114630;1220;137254;-81
2021/08/30 03:09:24;;;;;;;0.10;0.10;;;;;;;13.18;74.42;97785.38;114703;1227;138264;-80
2021/08/30 03:12:51;;;;;;;0.10;0.10;;;;;;;13.21;74.74;97781.17;114714;1217;138634;-80
2021/08/30 03:16:29;;;;;;;0.10;0.10;;;;;;;13.26;74.84;97782.39;114750;1217;137682;-80
2021/08/30 03:19:56;;;;;;;0.10;0.10;;;;;;;13.27;74.78;97783.89;114372;1222;137582;-80
2021/08/30 03:23:25;;;;;;;0.10;0.10;;;;;;;13.27;74.71;97784.66;114651;1220;137244;-80
2021/08/30 03:26:59;;;;;;;0.10;0.10;;;;;;;13.24;74.61;97785.45;114718;1220;137574;-80
2021/08/30 03:30:25;;;;;;;0.10;0.10;;;;;;;13.20;74.53;97786.08;114497;1217;137561;-80
2021/08/30 03:33:52;;;;;;;0.10;0.10;;;;;;;13.17;74.51;97778.30;114619;1217;137329;-80
2021/08/30 03:37:19;;;;;;;0.00;0.00;;;;;;;13.17;74.54;97777.56;114725;1217;138042;-80
2021/08/30 03:40:45;;;;;;;0.10;0.10;;;;;;;13.20;74.59;97783.49;114702;1216;137974;-80
2021/08/30 03:44:17;;;;;;;0.10;0.10;;;;;;;13.23;74.54;97783.15;114701;1227;137541;-80
2021/08/30 03:47:42;;;;;;;;;;;;;;;;;;;;;
2021/08/30 03:51:16;;;;;;;0.10;0.10;;;;;;;13.20;74.27;97786.98;114552;1217;139001;-81
2021/08/30 03:54:51;;;;;;;0.10;0.10;;;;;;;13.16;74.22;97789.73;114705;1227;136197;-81
2021/08/30 03:58:18;;;;;;;0.10;0.10;;;;;;;13.13;74.20;97791.23;114659;1217;137543;-81
2021/08/30 04:01:52;;;;;;;0.20;0.20;;;;;;;13.08;74.16;97793.70;114675;1217;138856;-80
2021/08/30 04:05:21;;;;;;;0.10;0.10;;;;;;;13.07;74.21;97796.08;114610;1221;138966;-80
2021/08/30 04:15:40;;;;;;;0.10;0.10;;;;;;;13.15;74.34;97813.70;114698;1215;137459;-81
2021/08/30 04:22:51;;;;;;;;;;;;;;;;;;;;;
2021/08/30 04:26:08;;;;;;;0.10;0.10;;;;;;;13.10;73.90;97821.11;114627;1217;136333;-81
2021/08/30 04:29:35;;;;;;;0.10;0.10;;;;;;;13.06;74.00;97821.31;114687;1221;137659;-80
2021/08/30 04:33:11;;;;;;;0.00;0.00;;;;;;;13.08;73.97;97827.17;114671;1217;138279;-80
2021/08/30 04:36:36;;;;;;;0.10;0.10;;;;;;;13.13;74.14;97825.55;114531;1218;138174;-80
2021/08/30 04:39:58;;;;;;;0.10;0.10;;;;;;;13.19;74.40;97827.27;114654;1217;137484;-80
2021/08/30 04:43:22;;;;;;;;;;;;;;;;;;;;;
2021/08/30 04:50:18;;;;;;;0.10;0.10;;;;;;;13.28;73.95;97830.95;114692;1221;137346;-80
2021/08/30 04:57:14;;;;;;;0.10;0.10;;;;;;;13.23;73.79;97837.77;114732;1216;138084;-80
2021/08/30 05:04:07;;;;;;;0.10;0.10;;;;;;;13.37;74.07;97841.59;114531;1219;138390;-81
2021/08/30 05:14:34;;;;;;;0.20;0.20;;;;;;;13.53;74.01;97840.61;114539;1225;137358;-81
2021/08/30 05:21:25;;;;;;;0.20;0.20;;;;;;;13.56;73.77;97833.48;114503;1215;138031;-78
2021/08/30 05:24:52;;;;;;;0.00;0.00;;;;;;;13.61;73.83;97837.89;114463;1222;138165;-77
2021/08/30 05:28:18;;;;;;;0.10;0.10;;;;;;;13.69;74.11;97835.20;114498;1217;138494;-78
2021/08/30 05:31:44;;;;;;;0.20;0.20;;;;;;;13.77;74.24;97833.19;114371;1217;137868;-78
2021/08/30 05:35:10;;;;;;;0.10;0.10;;;;;;;13.86;74.10;97831.98;114491;1217;137135;-78
2021/08/30 05:38:38;;;;;;;0.10;0.10;;;;;;;13.95;73.81;97827.82;114483;1221;137209;-79
2021/08/30 05:42:05;;;;;;;0.20;0.20;;;;;;;14.06;73.83;97828.49;114480;1218;137883;-77
2021/08/30 05:45:33;;;;;;;0.10;0.10;;;;;;;14.11;73.81;97828.48;114480;1222;137440;-78
2021/08/30 05:48:58;;;;;;;0.10;0.10;;;;;;;14.16;73.55;97839.44;114454;1217;138068;-77
2021/08/30 05:52:25;;;;;;;0.10;0.10;;;;;;;14.21;73.61;97837.50;114457;1216;138081;-77
2021/08/30 05:55:53;;;;;;;0.10;0.10;;;;;;;14.25;73.46;97839.77;114445;1225;137319;-77
2021/08/30 06:02:54;;;;;;;0.10;0.10;;;;;;;14.33;73.36;97842.70;114554;1220;137741;-80
2021/08/30 06:06:21;;;;;;;0.10;0.10;;;;;;;14.44;73.23;97845.68;114583;1221;137528;-79
2021/08/30 06:09:53;;;;;;;0.10;0.10;;;;;;;14.50;73.07;97850.89;114716;1227;136643;-80
2021/08/30 06:12:59;;;;;;;;;;;;;;;14.59;72.97;97851.73;114740;1218;138047;-80
2021/08/30 06:23:28;;;;;;;0.10;0.10;;;;;;;14.68;72.68;97846.95;114795;1224;22189;-81
2021/08/30 06:26:54;;;;;;;0.20;0.20;;;;;;;14.76;72.59;97851.87;114775;1221;138244;-80
2021/08/30 06:30:28;;;;;;;0.20;0.20;;;;;;;14.83;72.57;97853.29;114685;1218;137548;-80
2021/08/30 06:33:39;;;;;;;;;;;;;;;;;;;;;
2021/08/30 06:37:08;;;;;;;0.20;0.20;;;;;;;14.86;72.20;97858.17;114868;1217;138267;-81
2021/08/30 06:40:34;;;;;;;0.20;0.20;;;;;;;14.84;71.98;97860.11;114691;1218;137682;-80
2021/08/30 07:03:29;;;;;;;0.10;0.10;;;;;;;15.27;71.63;97861.54;114649;1216;137666;-82
2021/08/30 07:07:00;;;;;;;0.20;0.20;;;;;;;15.40;71.15;97856.17;114595;1227;137370;-81
2021/08/30 07:10:29;;;;;;;0.20;0.20;;;;;;;15.48;70.72;97853.34;114433;1218;137881;-81
2021/08/30 07:13:57;;;;;;;0.20;0.20;;;;;;;15.50;70.64;97864.85;114659;1217;137318;-82
2021/08/30 07:17:24;;;;;;;0.20;0.20;;;;;;;15.56;70.05;97861.02;114699;1221;137306;-82
2021/08/30 07:20:54;;;;;;;0.20;0.20;;;;;;;15.62;70.06;97863.49;114665;1225;136728;-83
2021/08/30 07:24:22;;;;;;;0.10;0.10;;;;;;;15.75;70.03;97862.63;114555;1221;138027;-79
2021/08/30 07:35:14;;;;;;;;;;;;;;;;;;;;;
2021/08/30 07:41:43;;;;;;;;;;;;;;;16.29;68.64;97878.85;114692;1227;22378;-83
2021/08/30 07:45:09;;;;;;;0.20;0.20;;;;;;;16.40;68.61;97876.81;114755;1218;124659;-83
2021/08/30 07:48:37;;;;;;;0.20;0.20;;;;;;;16.60;68.16;97880.42;114580;1218;138178;-82
2021/08/30 07:55:44;;;;;;;;;;;;;;;;;;;;;
2021/08/30 08:02:18;;;;;;;;;;;;;;;;;;;;;
2021/08/30 08:05:46;;;;;;;;;;;;;;;;;;;;;
2021/08/30 08:12:28;;;;;;;0.20;0.20;;;;;;;17.36;65.76;97902.48;114706;1216;138366;-81
2021/08/30 08:16:02;;;;;;;0.10;0.10;;;;;;;17.55;65.79;97901.05;114706;1221;137625;-82
2021/08/30 08:19:36;;;;;;;0.30;0.30;;;;;;;17.74;64.95;97905.85;114471;1228;137288;-81
2021/08/30 08:29:41;;;;;;;0.30;0.30;;;;;;;18.09;63.00;97908.50;114588;1220;137431;-81
2021/08/30 08:40:03;;;;;;;0.30;0.30;;;;;;;18.42;61.17;97912.27;114871;1218;137305;-81
2021/08/30 08:46:53;;;;;;;0.30;0.30;;;;;;;18.64;60.40;97922.70;114725;1221;137456;-83
2021/08/30 08:53:53;;;;;;;0.40;0.40;;;;;;;19.04;59.62;97932.95;114608;1221;22910;-80
2021/08/30 08:57:20;;;;;;;0.30;0.30;;;;;;;19.21;59.00;97935.91;114473;1217;137418;-82
2021/08/30 09:00:52;;;;;;;0.30;0.30;;;;;;;19.40;58.28;97935.52;114484;1217;137443;-83
2021/08/30 09:19:45;;;;;;;0.40;0.40;;;;;;;19.95;55.56;97943.48;114740;1217;137587;-82
2021/08/30 09:23:14;;;;;;;0.30;0.30;;;;;;;20.16;54.83;97946.25;114489;1223;137170;-83
2021/08/30 09:26:41;;;;;;;0.30;0.30;;;;;;;20.31;53.74;97946.34;114756;1221;137346;-83
2021/08/30 09:30:17;;;;;;;;;;;;;;;;;;;;;
2021/08/30 09:39:54;;;;;;;0.30;0.30;;;;;;;20.79;52.52;97947.54;114782;1217;137876;-83
2021/08/30 09:50:11;;;;;;;0.40;0.40;;;;;;;21.14;51.71;97957.45;114625;1215;137357;-83
2021/08/30 09:53:37;;;;;;;0.20;0.20;;;;;;;21.26;51.46;97961.77;114529;1222;138569;-84
2021/08/30 10:17:08;;;;;;;0.40;0.40;;;;;;;22.49;48.63;97951.66;114619;1218;137449;-83
2021/08/30 10:20:36;;;;;;;0.40;0.40;;;;;;;22.69;47.46;97949.92;114726;1220;137915;-84
2021/08/30 10:27:17;;;;;;;0.40;0.40;;;;;;;23.08;45.75;97939.83;114588;1217;137854;-84
2021/08/30 10:34:09;;;;;;;0.30;0.30;;;;;;;23.54;43.81;97945.91;114479;1217;138030;-84
2021/08/30 10:37:38;;;;;;;0.30;0.30;;;;;;;23.74;42.68;97948.35;114383;1217;137951;-83
2021/08/30 10:41:02;;;;;;;0.30;0.30;;;;;;;23.70;41.79;97946.83;114538;1217;137515;-84
2021/08/30 10:48:05;;;;;;;0.40;0.40;;;;;;;23.98;41.15;97951.19;114398;1217;137447;-83
2021/08/30 10:55:08;;;;;;;0.40;0.40;;;;;;;24.26;41.39;97957.33;114455;1218;138515;-81
2021/08/30 10:58:35;;;;;;;0.30;0.30;;;;;;;24.43;40.37;97961.80;114481;1218;137381;-81
2021/08/30 11:02:27;;;;;;;0.40;0.40;;;;;;;24.58;40.04;97962.94;114516;1220;137389;-81
2021/08/30 11:05:30;;;;;;;0.40;0.40;;;;;;;24.44;39.28;97957.45;114384;1222;137270;-83
2021/08/30 11:12:25;;;;;;;0.50;0.50;;;;;;;24.41;39.86;97955.36;114429;1219;137578;-82
2021/08/30 11:15:58;;;;;;;0.30;0.30;;;;;;;24.22;40.07;97962.95;114478;1221;137377;-84
2021/08/30 11:23:16;;;;;;;;;;;;;;;;;;;;;
2021/08/30 11:30:03;;;;;;;0.40;0.40;;;;;;;23.62;41.31;97966.17;114486;1229;136865;-83
2021/08/30 11:33:31;;;;;;;0.40;0.40;;;;;;;23.99;41.25;97962.88;114646;1217;137544;-83
2021/08/30 11:47:38;;;;;;;0.40;0.40;;;;;;;24.29;39.62;97960.35;114458;1221;137259;-84
2021/08/30 11:51:03;;;;;;;0.40;0.40;;;;;;;24.31;39.74;97965.52;114036;1221;137671;-83
2021/08/30 11:54:35;;;;;;;0.40;0.40;;;;;;;24.62;39.11;97962.80;114031;1224;137805;-84
2021/08/30 12:01:28;;;;;;;0.60;0.60;;;;;;;24.62;39.45;97950.70;114443;1221;137547;-84
2021/08/30 12:05:02;;;;;;;0.40;0.40;;;;;;;24.64;39.19;97950.27;114509;1222;137410;-84
2021/08/30 12:22:50;;;;;;;0.40;0.40;;;;;;;25.43;37.55;97958.06;114491;1218;137531;-84
2021/08/30 12:26:23;;;;;;;0.40;0.40;;;;;;;25.78;37.17;97960.08;114471;1224;137436;-83
2021/08/30 12:33:28;;;;;;;0.40;0.40;;;;;;;26.52;35.87;97955.23;114295;1218;137485;-83
2021/08/30 12:36:54;;;;;;;0.50;0.50;;;;;;;26.84;35.07;97960.95;114660;1217;137559;-84
2021/08/30 12:40:28;;;;;;;0.40;0.40;;;;;;;26.80;34.53;97959.31;114636;1217;137564;-83
2021/08/30 12:44:01;;;;;;;0.50;0.50;;;;;;;26.74;34.92;97964.56;114398;1221;151568;-83
2021/08/30 12:50:56;;;;;;;0.50;0.50;;;;;;;26.38;35.73;97963.92;114658;1222;136474;-84
2021/08/30 12:54:22;;;;;;;0.50;0.50;;;;;;;26.18;36.08;97962.98;114470;1218;137909;-84
2021/08/30 12:57:50;;;;;;;0.40;0.40;;;;;;;25.94;36.05;97966.89;114512;1218;137403;-84
2021/08/30 13:01:17;;;;;;;0.40;0.40;;;;;;;25.67;36.49;97965.54;114545;1218;137456;-83
2021/08/30 13:08:23;;;;;;;0.40;0.40;;;;;;;25.04;37.21;97971.38;114399;1221;137390;-83
2021/08/30 13:15:40;;;;;;;0.50;0.50;;;;;;;24.56;38.40;97968.23;114512;1228;136339;-83
2021/08/30 13:19:09;;;;;;;0.40;0.40;;;;;;;24.58;38.71;97964.67;114267;1220;137366;-83
2021/08/30 13:22:35;;;;;;;0.50;0.50;;;;;;;25.22;37.87;97962.69;114540;1220;137388;-83
2021/08/30 13:26:03;;;;;;;0.50;0.50;;;;;;;26.17;36.46;97962.85;114540;1218;137363;-83
2021/08/30 13:29:29;;;;;;;0.60;0.60;;;;;;;26.94;34.86;97965.31;114525;1221;137171;-83
2021/08/30 13:33:01;;;;;;;0.50;0.50;;;;;;;27.52;33.59;97968.02;114519;1221;137683;-84
2021/08/30 13:36:35;;;;;;;0.50;0.50;;;;;;;27.93;32.28;97971.13;114356;1218;137590;-84
2021/08/30 13:40:01;;;;;;;0.60;0.60;;;;;;;27.93;32.00;97976.33;114358;1218;137366;-83
2021/08/30 13:43:28;;;;;;;0.50;0.50;;;;;;;28.34;32.01;97974.52;114552;1228;136556;-84
2021/08/30 13:46:54;;;;;;;0.40;0.40;;;;;;;28.83;31.75;97973.38;114592;1218;136294;-81
2021/08/30 13:50:22;;;;;;;0.50;0.50;;;;;;;29.56;31.17;97972.73;114597;1224;138816;-81
2021/08/30 14:01:11;;;;;;;;;;;;;;;;;;;;;
2021/08/30 14:04:39;;;;;;;0.30;0.30;;;;;;;27.57;32.24;97992.31;114306;1221;137858;-82
2021/08/30 14:08:18;;;;;;;0.40;0.40;;;;;;;27.11;33.58;97993.77;114305;1224;137714;-82
2021/08/30 14:11:45;;;;;;;0.40;0.40;;;;;;;26.61;35.19;97996.00;114319;1222;137136;-81
2021/08/30 14:23:26;;;;;;;0.50;0.50;;;;;;;25.31;38.05;98019.28;114728;1213;137343;-82
2021/08/30 14:26:49;;;;;;;0.40;0.40;;;;;;;24.75;38.98;98013.48;114928;1227;23043;-81
2021/08/30 14:30:15;;;;;;;0.50;0.50;;;;;;;24.33;42.19;98015.90;114745;1217;137427;-81
2021/08/30 14:33:42;;;;;;;0.50;0.50;;;;;;;24.54;44.62;98011.05;114569;1218;137557;-82
2021/08/30 14:37:11;;;;;;;0.50;0.50;;;;;;;24.56;45.92;98006.46;114832;1218;137357;-80
2021/08/30 14:44:03;;;;;;;0.40;0.40;;;;;;;24.19;48.15;98006.44;114695;1220;137600;-81
2021/08/30 14:47:29;;;;;;;0.40;0.40;;;;;;;24.05;48.82;98010.27;114829;1226;136223;-80
2021/08/30 14:51:06;;;;;;;;;;;;;;;;;;;;;
2021/08/30 15:04:54;;;;;;;0.50;0.50;;;;;;;25.13;49.10;98017.79;114372;1221;137426;-84
2021/08/30 15:10:05;;;;;;;0.50;0.50;;;;;;;26.19;47.51;98014.68;114411;1217;137544;-85
2021/08/30 15:12:35;;;;;;;0.40;0.40;;;;;;;26.32;46.37;98014.52;114436;1218;137515;-84
2021/08/30 15:15:00;;;;;;;0.60;0.60;;;;;;;26.54;45.95;98022.55;114414;1219;137483;-85
2021/08/30 15:17:26;;;;;;;0.70;0.70;;;;;;;27.48;44.55;98026.42;114425;1220;137563;-86
2021/08/30 15:19:52;;;;;;;0.80;0.80;;;;;;;28.98;42.39;98027.63;114515;1221;22448;-85
2021/08/30 15:22:19;;;;;;;0.60;0.60;;;;;;;30.39;39.82;98027.74;114277;1218;137302;-85
2021/08/30 15:24:44;;;;;;;0.50;0.50;;;;;;;30.46;38.29;98023.87;114277;1219;137613;-85
2021/08/30 15:27:10;;;;;;;0.40;0.40;;;;;;;30.47;36.25;98025.02;114168;1221;137600;-85
2021/08/30 15:29:36;;;;;;;0.90;0.90;;;;;;;30.38;36.04;98029.30;114305;1224;137903;-85
2021/08/30 15:32:03;;;;;;;0.60;0.60;;;;;;;31.31;34.01;98025.11;114436;1223;137613;-84
2021/08/30 15:34:29;;;;;;;0.60;0.60;;;;;;;31.00;34.57;98029.86;114507;1222;22352;-84
2021/08/30 15:36:54;;;;;;;0.60;0.60;;;;;;;30.56;35.66;98031.69;114176;1222;137673;-84
2021/08/30 15:39:20;;;;;;;0.50;0.50;;;;;;;29.97;35.86;98037.19;114281;1218;137484;-84
2021/08/30 15:41:46;;;;;;;0.50;0.50;;;;;;;29.40;35.90;98041.52;114388;1218;137410;-84
2021/08/30 15:44:11;;;;;;;0.50;0.50;;;;;;;28.87;35.76;98038.28;114227;1216;138243;-84
2021/08/30 15:46:37;;;;;;;0.50;0.50;;;;;;;28.35;36.15;98035.34;114263;1224;22308;-84
2021/08/30 15:49:03;;;;;;;0.40;0.40;;;;;;;27.90;36.48;98035.79;114378;1220;137975;-84
2021/08/30 15:51:30;;;;;;;0.70;0.70;;;;;;;27.51;37.34;98029.11;114299;1220;138562;-84
2021/08/30 15:53:57;;;;;;;0.80;0.80;;;;;;;28.13;36.93;98028.91;114283;1216;137586;-84
2021/08/30 15:56:22;;;;;;;0.60;0.60;;;;;;;29.20;34.96;98031.73;114384;1216;137787;-84
2021/08/30 15:58:47;;;;;;;0.50;0.50;;;;;;;29.72;35.11;98029.13;114416;1217;22305;-84
2021/08/30 16:01:13;;;;;;;0.50;0.50;;;;;;;29.35;35.55;98033.92;114404;1218;137192;-84
2021/08/30 16:03:39;;;;;;;0.40;0.40;;;;;;;28.83;36.58;98031.58;114362;1216;137361;-84
2021/08/30 16:06:05;;;;;;;0.40;0.40;;;;;;;28.32;37.54;98032.64;114179;1219;137519;-84
2021/08/30 16:08:31;;;;;;;0.50;0.50;;;;;;;27.82;38.19;98029.73;114309;1219;137674;-84
2021/08/30 16:10:56;;;;;;;0.40;0.40;;;;;;;27.29;38.68;98025.59;114192;1219;137736;-84
2021/08/30 16:13:22;;;;;;;0.50;0.50;;;;;;;26.87;39.56;98022.84;114284;1217;22336;-84
2021/08/30 16:15:49;;;;;;;0.50;0.50;;;;;;;26.74;40.02;98022.64;114237;1220;138031;-84
2021/08/30 16:18:16;;;;;;;0.40;0.40;;;;;;;26.53;40.54;98027.02;114173;1219;137515;-84
2021/08/30 16:20:42;;;;;;;0.60;0.60;;;;;;;26.33;41.43;98027.61;114263;1216;137770;-84
2021/08/30 16:23:07;;;;;;;0.40;0.40;;;;;;;25.94;41.93;98026.17;114180;1218;137763;-84
2021/08/30 16:25:34;;;;;;;0.50;0.50;;;;;;;25.57;42.59;98031.64;114318;1223;23151;-84
2021/08/30 16:28:00;;;;;;;0.40;0.40;;;;;;;25.29;43.32;98031.27;114196;1219;137462;-84
2021/08/30 16:30:26;;;;;;;0.50;0.50;;;;;;;25.14;44.02;98032.48;114223;1219;137751;-84
2021/08/30 16:32:53;;;;;;;0.40;0.40;;;;;;;25.11;44.15;98030.64;114241;1219;137819;-84
2021/08/30 16:35:19;;;;;;;0.50;0.50;;;;;;;24.86;44.70;98030.40;114312;1220;137950;-84
2021/08/30 16:37:45;;;;;;;0.40;0.40;;;;;;;24.48;45.15;98031.08;114332;1224;22426;-84
2021/08/30 16:40:15;;;;;;;0.40;0.40;;;;;;;24.14;45.70;98035.10;114237;1220;137888;-84
2021/08/30 16:42:41;;;;;;;0.40;0.40;;;;;;;24.01;46.22;98039.24;114340;1219;137314;-84
2021/08/30 16:45:08;;;;;;;0.40;0.40;;;;;;;23.97;46.46;98037.94;114281;1219;137606;-84
2021/08/30 16:47:35;;;;;;;0.40;0.40;;;;;;;23.75;46.97;98037.64;114234;1219;137676;-84
2021/08/30 16:50:01;;;;;;;0.40;0.40;;;;;;;23.48;47.46;98039.47;114180;1223;137534;-84
2021/08/30 16:52:26;;;;;;;0.40;0.40;;;;;;;23.21;47.72;98031.88;114401;1223;22747;-84
2021/08/30 16:54:52;;;;;;;0.30;0.30;;;;;;;23.05;47.90;98030.09;114219;1220;137420;-84
2021/08/30 16:57:21;;;;;;;0.30;0.30;;;;;;;22.84;48.25;98029.85;114240;1229;137446;-84
2021/08/30 16:59:47;;;;;;;0.40;0.40;;;;;;;22.71;48.22;98028.41;114086;1220;137556;-85
2021/08/30 17:02:13;;;;;;;0.30;0.30;;;;;;;22.55;48.20;98028.15;114158;1221;138044;-84
2021/08/30 17:04:39;;;;;;;0.20;0.20;;;;;;;22.22;48.86;98033.41;114273;1223;23102;-84
2021/08/30 17:07:06;;;;;;;0.20;0.20;;;;;;;21.91;49.43;98034.29;114236;1219;137953;-84
2021/08/30 17:09:31;;;;;;;0.30;0.30;;;;;;;21.58;49.83;98035.94;114311;1220;137417;-84
2021/08/30 17:11:58;;;;;;;0.30;0.30;;;;;;;21.29;50.42;98030.71;114241;1219;137487;-84
2021/08/30 17:14:25;;;;;;;0.30;0.30;;;;;;;21.01;51.04;98036.03;114165;1219;137700;-84
2021/08/30 17:16:50;;;;;;;0.40;0.40;;;;;;;20.72;51.72;98038.74;114337;1223;22358;-84
2021/08/30 17:19:16;;;;;;;0.20;0.20;;;;;;;20.46;52.03;98039.86;114155;1222;136994;-84
2021/08/30 17:21:41;;;;;;;0.20;0.20;;;;;;;20.19;52.40;98042.65;114245;1223;137712;-84
2021/08/30 17:24:07;;;;;;;0.30;0.30;;;;;;;19.93;52.89;98042.33;114300;1220;137524;-84
2021/08/30 17:26:41;;;;;;;0.20;0.20;;;;;;;19.69;53.30;98045.88;114258;1220;138795;-84
2021/08/30 17:29:08;;;;;;;0.20;0.20;;;;;;;19.44;53.86;98046.72;114191;1221;138424;-84
2021/08/30 17:31:34;;;;;;;0.20;0.20;;;;;;;19.22;54.27;98046.27;114263;1229;22339;-84
2021/08/30 17:34:00;;;;;;;0.20;0.20;;;;;;;19.02;54.69;98051.34;114209;1219;137749;-84
2021/08/30 17:36:26;;;;;;;0.20;0.20;;;;;;;18.80;54.93;98051.17;114252;1220;137844;-84
2021/08/30 17:38:52;;;;;;;0.10;0.10;;;;;;;18.62;55.23;98049.13;114185;1220;137636;-85
2021/08/30 17:41:19;;;;;;;0.10;0.10;;;;;;;18.44;55.57;98048.44;114166;1221;138078;-84
2021/08/30 17:43:50;;;;;;;0.20;0.20;;;;;;;18.26;55.98;98049.58;114305;1223;22403;-84
2021/08/30 17:46:17;;;;;;;0.10;0.10;;;;;;;18.09;56.36;98050.35;114154;1221;137548;-84
2021/08/30 17:48:43;;;;;;;0.20;0.20;;;;;;;17.92;56.67;98052.35;114147;1219;137508;-84
2021/08/30 17:51:08;;;;;;;0.20;0.20;;;;;;;17.79;57.01;98053.99;114198;1220;137674;-84
2021/08/30 17:53:34;;;;;;;0.20;0.20;;;;;;;17.67;57.31;98057.98;114224;1220;137600;-84
2021/08/30 17:55:59;;;;;;;0.30;0.30;;;;;;;17.56;57.79;98060.15;114165;1221;137467;-84
2021/08/30 17:58:26;;;;;;;0.20;0.20;;;;;;;17.45;58.18;98062.41;114379;1223;22334;-84
2021/08/30 18:00:52;;;;;;;0.20;0.20;;;;;;;17.35;58.58;98066.29;114191;1216;137583;-85
2021/08/30 18:03:22;;;;;;;0.20;0.20;;;;;;;17.29;58.91;98066.48;114175;1218;138992;-85
2021/08/30 18:05:49;;;;;;;0.20;0.20;;;;;;;17.25;59.27;98068.81;114184;1228;138379;-84
2021/08/30 18:08:16;;;;;;;0.20;0.20;;;;;;;17.21;59.52;98075.98;114223;1218;138010;-84
2021/08/30 18:10:42;;;;;;;0.10;0.10;;;;;;;17.15;59.60;98078.44;114364;1223;22350;-84
2021/08/30 18:13:08;;;;;;;0.10;0.10;;;;;;;17.09;59.90;98076.61;114155;1226;137699;-84
2021/08/30 18:15:34;;;;;;;0.10;0.10;;;;;;;17.04;60.03;98080.94;114130;1217;137961;-84
2021/08/30 18:18:00;;;;;;;0.30;0.30;;;;;;;16.97;59.99;98081.42;114247;1224;137501;-85
2021/08/30 18:20:25;;;;;;;0.10;0.10;;;;;;;16.91;60.10;98087.30;114164;1229;137671;-84
2021/08/30 18:22:52;;;;;;;0.20;0.20;;;;;;;16.84;60.30;98093.20;114358;1224;22355;-84
2021/08/30 18:25:18;;;;;;;0.10;0.10;;;;;;;16.77;60.42;98094.30;114134;1221;137399;-84
2021/08/30 18:27:46;;;;;;;0.20;0.20;;;;;;;16.69;60.78;98093.57;114176;1221;137388;-84
2021/08/30 18:30:13;;;;;;;0.10;0.10;;;;;;;16.60;61.10;98097.35;114235;1218;137471;-84
2021/08/30 18:32:38;;;;;;;0.20;0.20;;;;;;;16.52;61.06;98098.88;114201;1223;137586;-84
2021/08/30 18:35:04;;;;;;;0.10;0.10;;;;;;;16.46;61.31;98105.26;114277;1217;138009;-84
2021/08/30 18:37:30;;;;;;;0.10;0.10;;;;;;;16.38;61.51;98104.31;114386;1224;22335;-84
2021/08/30 18:39:55;;;;;;;0.10;0.10;;;;;;;16.33;61.92;98104.13;114140;1217;137668;-84
2021/08/30 18:42:21;;;;;;;0.20;0.20;;;;;;;16.29;61.97;98109.77;114287;1218;138343;-85
2021/08/30 18:44:46;;;;;;;0.20;0.20;;;;;;;16.29;62.27;98110.69;114150;1221;138908;-85
2021/08/30 18:47:12;;;;;;;0.20;0.20;;;;;;;16.27;62.49;98114.40;114293;1219;137486;-84
2021/08/30 18:49:38;;;;;;;0.20;0.20;;;;;;;16.26;62.49;98115.52;114318;1225;22269;-84
2021/08/30 18:52:05;;;;;;;0.10;0.10;;;;;;;16.25;62.61;98113.40;114068;1221;138091;-84
2021/08/30 18:54:31;;;;;;;0.20;0.20;;;;;;;16.22;62.75;98115.20;114158;1221;137467;-85
2021/08/30 18:56:57;;;;;;;0.20;0.20;;;;;;;16.18;62.77;98119.46;114214;1219;137400;-85
2021/08/30 18:59:23;;;;;;;0.20;0.20;;;;;;;16.15;63.14;98122.34;114273;1219;138100;-85
2021/08/30 19:01:48;;;;;;;0.20;0.20;;;;;;;16.10;63.10;98120.83;114197;1225;22393;-85
2021/08/30 19:04:14;;;;;;;0.10;0.10;;;;;;;16.05;63.19;98118.98;114182;1221;137336;-85